Time,TemperatureF,DewpointF,PressureIn,WindDirection,WindDirectionDegrees,WindSpeedMPH,WindSpeedGustMPH,Humidity,HourlyPrecipIn,Conditions,Clouds,dailyrainin,SoftwareType,DateUTC
2013-02-27 00:05:00,33.2,32.0,29.63,SSW,193,4.2,4.5,98,0.00,,,0.00,TxWx,2013-02-27 06:05:00,
2013-02-27 00:10:00,33.2,32.0,29.63,South,190,5.4,5.4,98,0.00,,,0.00,TxWx,2013-02-27 06:10:00,
2013-02-27 00:15:00,33.2,32.0,29.63,South,187,5.7,5.7,98,0.00,,,0.00,TxWx,2013-02-27 06:15:00,
2013-02-27 00:20:00,33.2,32.0,29.63,South,191,4.2,4.2,98,0.00,,,0.00,TxWx,2013-02-27 06:20:00,
2013-02-27 00:25:00,33.2,32.0,29.63,South,181,3.9,3.9,98,0.00,,,0.00,TxWx,2013-02-27 06:25:00,
2013-02-27 00:31:00,33.3,33.0,29.63,SSW,194,5.4,5.4,99,0.00,,,0.00,TxWx,2013-02-27 06:31:00,
2013-02-27 00:36:00,33.2,33.0,29.63,SSW,193,4.8,4.8,99,0.00,,,0.01,TxWx,2013-02-27 06:36:00,
2013-02-27 00:41:00,33.3,33.0,29.64,SSW,201,3.6,3.9,99,0.06,,,0.01,TxWx,2013-02-27 06:41:00,
2013-02-27 00:46:00,33.2,32.0,29.63,South,188,3.6,3.9,98,0.06,,,0.01,TxWx,2013-02-27 06:46:00,
2013-02-27 00:51:00,33.3,33.0,29.63,South,188,3.0,3.0,99,0.00,,,0.01,TxWx,2013-02-27 06:51:00,
2013-02-27 00:57:00,33.3,33.0,29.63,South,185,3.6,3.6,99,0.00,,,0.01,TxWx,2013-02-27 06:57:00,
2013-02-27 01:02:00,33.3,33.0,29.64,SSW,202,2.4,2.4,99,0.00,,,0.01,TxWx,2013-02-27 07:02:00,
2013-02-27 01:07:00,33.3,33.0,29.64,South,190,3.0,3.3,99,0.00,,,0.01,TxWx,2013-02-27 07:07:00,
2013-02-27 01:12:00,33.3,33.0,29.64,South,187,2.4,2.7,99,0.00,,,0.01,TxWx,2013-02-27 07:12:00,
2013-02-27 01:17:00,33.3,33.0,29.64,South,180,1.2,1.2,99,0.00,,,0.01,TxWx,2013-02-27 07:17:00,
2013-02-27 01:23:00,33.3,33.0,29.64,South,186,2.1,2.1,99,0.00,,,0.01,TxWx,2013-02-27 07:23:00,
2013-02-27 01:28:00,33.3,33.0,29.64,SSW,193,2.4,2.4,99,0.00,,,0.01,TxWx,2013-02-27 07:28:00,
2013-02-27 01:33:00,33.2,33.0,29.64,South,177,2.7,3.0,99,0.00,,,0.01,TxWx,2013-02-27 07:33:00,
2013-02-27 01:38:00,33.3,33.0,29.64,South,175,2.1,2.1,99,0.00,,,0.01,TxWx,2013-02-27 07:38:00,
2013-02-27 01:43:00,33.3,33.0,29.64,South,175,2.1,2.1,99,0.00,,,0.01,TxWx,2013-02-27 07:43:00,
2013-02-27 01:49:00,33.3,33.0,29.64,South,173,2.7,3.0,99,0.00,,,0.01,TxWx,2013-02-27 07:49:00,
2013-02-27 01:54:00,33.3,33.0,29.63,South,181,2.7,2.7,99,0.00,,,0.01,TxWx,2013-02-27 07:54:00,
2013-02-27 01:59:00,33.2,33.0,29.63,South,171,3.3,3.3,99,0.00,,,0.01,TxWx,2013-02-27 07:59:00,
2013-02-27 02:04:00,33.3,33.0,29.63,South,170,3.0,3.3,99,0.00,,,0.01,TxWx,2013-02-27 08:04:00,
2013-02-27 02:09:00,33.2,33.0,29.63,SSE,164,3.6,3.6,99,0.00,,,0.01,TxWx,2013-02-27 08:09:00,
2013-02-27 02:14:00,33.3,33.0,29.63,SSE,159,2.4,2.4,99,0.00,,,0.01,TxWx,2013-02-27 08:14:00,
2013-02-27 02:20:00,33.3,33.0,29.63,South,169,2.1,2.1,99,0.00,,,0.01,TxWx,2013-02-27 08:20:00,
2013-02-27 02:25:00,33.3,33.0,29.63,South,171,2.7,3.0,99,0.00,,,0.01,TxWx,2013-02-27 08:25:00,
2013-02-27 02:30:00,33.2,33.0,29.63,SSE,161,3.3,3.3,99,0.00,,,0.01,TxWx,2013-02-27 08:30:00,
2013-02-27 02:35:00,33.2,33.0,29.63,SSE,161,2.4,2.4,99,0.00,,,0.01,TxWx,2013-02-27 08:35:00,
2013-02-27 02:40:00,33.2,33.0,29.63,SSE,153,2.4,2.4,99,0.00,,,0.01,TxWx,2013-02-27 08:40:00,
2013-02-27 02:46:00,33.2,33.0,29.63,SSE,168,2.7,3.0,99,0.00,,,0.01,TxWx,2013-02-27 08:46:00,
2013-02-27 02:51:00,33.1,33.0,29.63,SSE,155,3.3,3.9,99,0.00,,,0.01,TxWx,2013-02-27 08:51:00,
2013-02-27 02:56:00,33.1,33.0,29.63,SSE,165,3.3,3.6,99,0.00,,,0.01,TxWx,2013-02-27 08:56:00,
2013-02-27 03:01:00,33.1,33.0,29.63,SSE,166,3.6,3.6,99,0.00,,,0.01,TxWx,2013-02-27 09:01:00,
2013-02-27 03:06:00,33.1,33.0,29.63,South,177,3.6,3.9,99,0.00,,,0.01,TxWx,2013-02-27 09:06:00,
2013-02-27 03:11:00,33.1,33.0,29.63,South,173,3.3,3.3,99,0.00,,,0.01,TxWx,2013-02-27 09:11:00,
2013-02-27 03:16:00,33.0,33.0,29.63,South,174,5.1,5.4,99,0.00,,,0.01,TxWx,2013-02-27 09:16:00,
2013-02-27 03:22:00,33.0,33.0,29.63,South,175,4.2,4.5,99,0.00,,,0.01,TxWx,2013-02-27 09:22:00,
2013-02-27 03:27:00,33.0,33.0,29.62,South,178,3.9,4.2,99,0.00,,,0.01,TxWx,2013-02-27 09:27:00,
2013-02-27 03:32:00,32.9,33.0,29.63,South,171,5.1,5.1,99,0.00,,,0.01,TxWx,2013-02-27 09:32:00,
2013-02-27 03:37:00,32.9,33.0,29.63,South,179,5.1,5.1,99,0.00,,,0.01,TxWx,2013-02-27 09:37:00,
2013-02-27 03:42:00,32.9,33.0,29.62,South,175,4.8,4.8,99,0.00,,,0.01,TxWx,2013-02-27 09:42:00,
2013-02-27 03:47:00,32.9,33.0,29.63,South,176,3.6,3.6,99,0.00,,,0.01,TxWx,2013-02-27 09:47:00,
2013-02-27 03:52:00,32.9,33.0,29.63,South,174,3.0,3.3,99,0.00,,,0.01,TxWx,2013-02-27 09:52:00,
2013-02-27 03:58:00,32.9,33.0,29.63,South,178,3.6,3.9,99,0.00,,,0.02,TxWx,2013-02-27 09:58:00,
2013-02-27 04:03:00,32.9,33.0,29.63,South,170,2.7,3.3,99,0.06,,,0.02,TxWx,2013-02-27 10:03:00,
2013-02-27 04:08:00,32.9,33.0,29.64,South,181,3.3,3.6,99,0.06,,,0.02,TxWx,2013-02-27 10:08:00,
2013-02-27 04:13:00,32.9,33.0,29.64,South,177,3.9,3.9,99,0.00,,,0.02,TxWx,2013-02-27 10:13:00,
2013-02-27 04:18:00,32.9,33.0,29.64,SSE,168,2.4,2.7,99,0.00,,,0.02,TxWx,2013-02-27 10:18:00,
2013-02-27 04:23:00,32.9,33.0,29.64,South,180,3.9,3.9,99,0.00,,,0.02,TxWx,2013-02-27 10:23:00,
2013-02-27 04:28:00,32.9,33.0,29.64,SSE,166,2.7,2.7,99,0.00,,,0.02,TxWx,2013-02-27 10:28:00,
2013-02-27 04:33:00,32.9,33.0,29.64,SSE,161,3.6,3.6,99,0.00,,,0.02,TxWx,2013-02-27 10:33:00,
2013-02-27 04:38:00,32.9,33.0,29.64,SSE,160,3.3,3.6,99,0.00,,,0.02,TxWx,2013-02-27 10:38:00,
2013-02-27 04:44:00,32.9,33.0,29.64,SSE,167,4.2,4.2,99,0.00,,,0.02,TxWx,2013-02-27 10:44:00,
2013-02-27 04:49:00,32.9,33.0,29.65,SSE,161,2.4,2.4,99,0.00,,,0.02,TxWx,2013-02-27 10:49:00,
2013-02-27 04:54:00,32.9,33.0,29.65,SSE,156,5.4,6.0,99,0.00,,,0.02,TxWx,2013-02-27 10:54:00,
2013-02-27 04:59:00,32.9,33.0,29.65,SSE,157,2.7,2.7,99,0.00,,,0.02,TxWx,2013-02-27 10:59:00,
2013-02-27 05:04:00,32.9,33.0,29.65,SSE,154,3.3,3.3,99,0.00,,,0.02,TxWx,2013-02-27 11:04:00,
2013-02-27 05:09:00,33.0,33.0,29.66,SSE,153,3.3,3.6,99,0.00,,,0.02,TxWx,2013-02-27 11:09:00,
2013-02-27 05:14:00,33.0,33.0,29.66,SSE,150,4.2,4.5,99,0.00,,,0.02,TxWx,2013-02-27 11:14:00,
2013-02-27 05:19:00,33.0,33.0,29.66,SSE,164,3.3,3.6,99,0.00,,,0.02,TxWx,2013-02-27 11:19:00,
2013-02-27 05:25:00,33.0,33.0,29.66,SSE,152,3.6,4.2,99,0.00,,,0.02,TxWx,2013-02-27 11:25:00,
2013-02-27 05:30:00,33.0,33.0,29.66,SSE,154,4.8,4.8,99,0.00,,,0.02,TxWx,2013-02-27 11:30:00,
2013-02-27 05:35:00,33.1,33.0,29.66,SE,145,3.0,3.3,99,0.00,,,0.02,TxWx,2013-02-27 11:35:00,
2013-02-27 05:40:00,33.1,33.0,29.66,SE,131,2.7,2.7,99,0.00,,,0.02,TxWx,2013-02-27 11:40:00,
2013-02-27 05:46:00,33.1,33.0,29.66,SE,137,3.6,3.9,99,0.00,,,0.02,TxWx,2013-02-27 11:46:00,
2013-02-27 05:51:00,33.2,33.0,29.66,SSE,154,1.2,1.2,99,0.00,,,0.02,TxWx,2013-02-27 11:51:00,
2013-02-27 05:56:00,33.1,33.0,29.66,SSE,152,2.7,3.0,99,0.00,,,0.02,TxWx,2013-02-27 11:56:00,
2013-02-27 06:01:00,33.2,33.0,29.67,SE,142,2.7,2.7,99,0.00,,,0.02,TxWx,2013-02-27 12:01:00,
2013-02-27 06:06:00,33.2,33.0,29.67,SE,142,3.6,3.9,99,0.00,,,0.02,TxWx,2013-02-27 12:06:00,
2013-02-27 06:11:00,33.2,33.0,29.67,SE,138,2.1,2.4,99,0.00,,,0.02,TxWx,2013-02-27 12:11:00,
2013-02-27 06:17:00,33.2,33.0,29.67,SE,125,2.4,2.4,99,0.00,,,0.02,TxWx,2013-02-27 12:17:00,
2013-02-27 06:22:00,33.2,33.0,29.67,SSE,151,1.8,2.1,99,0.00,,,0.02,TxWx,2013-02-27 12:22:00,
2013-02-27 06:27:00,33.2,33.0,29.67,SE,140,3.3,3.3,99,0.00,,,0.02,TxWx,2013-02-27 12:27:00,
2013-02-27 06:32:00,33.2,33.0,29.67,SSE,150,4.2,4.2,99,0.00,,,0.02,TxWx,2013-02-27 12:32:00,
2013-02-27 06:37:00,33.2,33.0,29.67,SE,141,2.7,3.3,99,0.00,,,0.02,TxWx,2013-02-27 12:37:00,
2013-02-27 06:42:00,33.1,33.0,29.67,SSE,155,4.5,4.5,99,0.00,,,0.02,TxWx,2013-02-27 12:42:00,
2013-02-27 06:48:00,33.2,33.0,29.67,SSE,162,2.4,2.4,99,0.00,,,0.02,TxWx,2013-02-27 12:48:00,
2013-02-27 06:53:00,33.1,33.0,29.67,SSE,149,4.8,5.1,99,0.00,,,0.02,TxWx,2013-02-27 12:53:00,
2013-02-27 06:58:00,33.2,33.0,29.67,SE,144,5.1,6.0,99,0.00,,,0.03,TxWx,2013-02-27 12:58:00,
2013-02-27 07:03:00,33.3,33.0,29.67,SE,142,4.2,4.2,99,0.06,,,0.03,TxWx,2013-02-27 13:03:00,
2013-02-27 07:09:00,33.3,33.0,29.67,SSE,153,3.6,4.2,99,0.06,,,0.03,TxWx,2013-02-27 13:09:00,
2013-02-27 07:14:00,33.2,33.0,29.67,SSE,162,5.7,5.7,99,0.00,,,0.03,TxWx,2013-02-27 13:14:00,
2013-02-27 07:19:00,33.2,33.0,29.67,SSE,166,5.7,6.0,99,0.00,,,0.03,TxWx,2013-02-27 13:19:00,
2013-02-27 07:24:00,33.3,33.0,29.68,SSE,159,5.4,5.7,99,0.00,,,0.04,TxWx,2013-02-27 13:24:00,
2013-02-27 07:29:00,33.3,33.0,29.68,SSE,157,5.4,5.4,99,0.00,,,0.04,TxWx,2013-02-27 13:29:00,
2013-02-27 07:34:00,33.3,33.0,29.68,SSE,161,5.1,5.7,99,0.06,,,0.04,TxWx,2013-02-27 13:34:00,
2013-02-27 07:40:00,33.4,33.0,29.68,SSE,156,6.3,6.3,99,0.06,,,0.05,TxWx,2013-02-27 13:40:00,
2013-02-27 07:45:00,33.4,33.0,29.68,SSE,155,5.4,5.4,99,0.06,,,0.05,TxWx,2013-02-27 13:45:00,
2013-02-27 07:50:00,33.4,33.0,29.68,SSE,153,7.5,7.5,99,0.06,,,0.05,TxWx,2013-02-27 13:50:00,
2013-02-27 07:55:00,33.4,33.0,29.68,SSE,155,5.4,5.4,99,0.00,,,0.06,TxWx,2013-02-27 13:55:00,
2013-02-27 08:00:00,33.5,34.0,29.69,SSE,153,3.0,3.0,99,0.06,,,0.06,TxWx,2013-02-27 14:00:00,
2013-02-27 08:05:00,33.5,33.0,29.69,SE,145,6.0,6.0,99,0.06,,,0.06,TxWx,2013-02-27 14:05:00,
2013-02-27 08:10:00,33.6,34.0,29.69,SSE,167,1.8,2.1,99,0.06,,,0.07,TxWx,2013-02-27 14:10:00,
2013-02-27 08:16:00,33.6,34.0,29.69,SSE,151,4.2,4.2,99,0.06,,,0.07,TxWx,2013-02-27 14:16:00,
2013-02-27 08:21:00,33.5,34.0,29.69,SE,141,5.4,5.4,99,0.00,,,0.07,TxWx,2013-02-27 14:21:00,
2013-02-27 08:26:00,33.6,34.0,29.70,SSE,150,1.5,1.8,99,0.00,,,0.08,TxWx,2013-02-27 14:26:00,
2013-02-27 08:31:00,33.6,34.0,29.70,SSE,147,4.2,4.5,99,0.06,,,0.08,TxWx,2013-02-27 14:31:00,
2013-02-27 08:36:00,33.6,34.0,29.70,SSE,152,3.0,3.0,99,0.06,,,0.09,TxWx,2013-02-27 14:36:00,
2013-02-27 08:42:00,33.6,34.0,29.70,SSE,156,3.9,3.9,99,0.06,,,0.09,TxWx,2013-02-27 14:42:00,
2013-02-27 08:47:00,33.6,34.0,29.70,SSE,155,5.1,5.4,99,0.06,,,0.09,TxWx,2013-02-27 14:47:00,
2013-02-27 08:52:00,33.6,34.0,29.70,SSE,155,3.3,3.9,99,0.06,,,0.10,TxWx,2013-02-27 14:52:00,
2013-02-27 08:57:00,33.7,34.0,29.70,SE,143,2.1,2.1,99,0.06,,,0.11,TxWx,2013-02-27 14:57:00,
2013-02-27 09:02:00,33.6,34.0,29.70,SE,138,2.4,2.4,99,0.06,,,0.11,TxWx,2013-02-27 15:02:00,
2013-02-27 09:07:00,33.6,34.0,29.70,SSE,159,1.5,1.5,99,0.06,,,0.12,TxWx,2013-02-27 15:07:00,
2013-02-27 09:12:00,33.7,34.0,29.70,SE,131,1.5,1.5,99,0.06,,,0.12,TxWx,2013-02-27 15:12:00,
2013-02-27 09:17:00,33.6,34.0,29.70,SE,131,4.8,4.8,99,0.06,,,0.13,TxWx,2013-02-27 15:17:00,
2013-02-27 09:23:00,33.6,34.0,29.70,SE,137,2.1,2.7,99,0.06,,,0.14,TxWx,2013-02-27 15:23:00,
2013-02-27 09:28:00,33.6,34.0,29.70,SE,138,5.4,5.4,99,0.06,,,0.14,TxWx,2013-02-27 15:28:00,
2013-02-27 09:33:00,33.6,34.0,29.70,SE,133,4.8,4.8,99,0.12,,,0.15,TxWx,2013-02-27 15:33:00,
2013-02-27 09:38:00,33.6,34.0,29.70,SE,133,3.3,3.9,99,0.12,,,0.16,TxWx,2013-02-27 15:38:00,
2013-02-27 09:44:00,33.6,34.0,29.70,SE,144,4.2,4.2,99,0.06,,,0.17,TxWx,2013-02-27 15:44:00,
2013-02-27 09:49:00,33.6,34.0,29.70,SSE,147,3.6,3.6,99,0.06,,,0.17,TxWx,2013-02-27 15:49:00,
2013-02-27 09:54:00,33.7,34.0,29.70,SSE,149,2.1,2.1,99,0.06,,,0.18,TxWx,2013-02-27 15:54:00,
2013-02-27 10:00:00,33.7,34.0,29.70,SE,126,3.3,3.3,99,0.06,,,0.19,TxWx,2013-02-27 16:00:00,
2013-02-27 10:05:00,33.8,34.0,29.70,SSE,156,2.7,2.7,99,0.12,,,0.19,TxWx,2013-02-27 16:05:00,
2013-02-27 10:10:00,33.7,34.0,29.70,SE,140,3.6,3.6,99,0.06,,,0.20,TxWx,2013-02-27 16:10:00,
2013-02-27 10:15:00,33.9,34.0,29.70,SE,138,3.9,3.9,99,0.06,,,0.20,TxWx,2013-02-27 16:15:00,
2013-02-27 10:20:00,33.8,34.0,29.70,SE,144,4.2,4.2,99,0.06,,,0.21,TxWx,2013-02-27 16:20:00,
2013-02-27 10:25:00,34.0,34.0,29.70,SE,139,2.4,2.4,99,0.06,,,0.22,TxWx,2013-02-27 16:25:00,
2013-02-27 10:31:00,34.0,34.0,29.70,SE,135,2.1,2.1,99,0.06,,,0.22,TxWx,2013-02-27 16:31:00,
2013-02-27 10:37:00,33.9,34.0,29.70,SSE,147,3.0,3.3,99,0.06,,,0.23,TxWx,2013-02-27 16:37:00,
2013-02-27 10:42:00,34.1,34.0,29.70,SE,137,4.2,4.2,99,0.06,,,0.23,TxWx,2013-02-27 16:42:00,
2013-02-27 10:47:00,34.2,34.0,29.70,SE,129,3.9,3.9,99,0.06,,,0.24,TxWx,2013-02-27 16:47:00,
2013-02-27 10:52:00,34.1,34.0,29.70,SE,133,6.9,7.2,99,0.06,,,0.24,TxWx,2013-02-27 16:52:00,
2013-02-27 10:57:00,34.3,34.0,29.70,SSE,160,3.6,3.6,99,0.06,,,0.25,TxWx,2013-02-27 16:57:00,
2013-02-27 11:03:00,34.4,34.0,29.70,SE,141,4.2,4.8,99,0.06,,,0.25,TxWx,2013-02-27 17:03:00,
2013-02-27 11:08:00,34.4,34.0,29.70,SE,140,3.6,4.2,99,0.06,,,0.26,TxWx,2013-02-27 17:08:00,
2013-02-27 11:13:00,34.5,35.0,29.70,SE,137,2.7,2.7,99,0.06,,,0.26,TxWx,2013-02-27 17:13:00,
2013-02-27 11:18:00,34.4,34.0,29.70,SSE,154,6.6,6.6,99,0.06,,,0.27,TxWx,2013-02-27 17:18:00,
2013-02-27 11:23:00,34.6,35.0,29.70,SSE,153,2.1,2.1,99,0.06,,,0.27,TxWx,2013-02-27 17:23:00,
2013-02-27 11:28:00,34.5,34.0,29.70,SSE,152,4.5,4.8,99,0.06,,,0.27,TxWx,2013-02-27 17:28:00,
2013-02-27 11:34:00,34.7,35.0,29.70,SSE,160,3.0,3.0,99,0.00,,,0.27,TxWx,2013-02-27 17:34:00,
2013-02-27 11:39:00,34.7,35.0,29.70,SSE,150,5.7,5.7,99,0.00,,,0.27,TxWx,2013-02-27 17:39:00,
2013-02-27 11:44:00,34.8,35.0,29.70,SSE,167,1.8,2.1,99,0.00,,,0.27,TxWx,2013-02-27 17:44:00,
2013-02-27 11:49:00,34.7,35.0,29.70,SE,134,6.9,8.1,99,0.00,,,0.27,TxWx,2013-02-27 17:49:00,
2013-02-27 11:55:00,34.8,35.0,29.70,SSE,147,4.8,4.8,99,0.00,,,0.27,TxWx,2013-02-27 17:55:00,
2013-02-27 12:00:00,34.8,35.0,29.70,SSE,151,3.0,3.0,99,0.00,,,0.27,TxWx,2013-02-27 18:00:00,
2013-02-27 12:05:00,34.7,35.0,29.70,SE,145,4.5,4.5,99,0.00,,,0.27,TxWx,2013-02-27 18:05:00,
2013-02-27 12:10:00,34.8,35.0,29.70,SSE,149,3.3,3.6,99,0.06,,,0.28,TxWx,2013-02-27 18:10:00,
2013-02-27 12:16:00,34.8,35.0,29.70,SE,146,5.4,5.4,99,0.06,,,0.28,TxWx,2013-02-27 18:16:00,
2013-02-27 12:21:00,34.8,35.0,29.70,ESE,123,2.1,2.4,99,0.00,,,0.28,TxWx,2013-02-27 18:21:00,
2013-02-27 12:27:00,34.7,35.0,29.70,SSE,148,5.7,6.6,99,0.00,,,0.28,TxWx,2013-02-27 18:27:00,
2013-02-27 12:32:00,34.8,35.0,29.70,SSE,157,3.3,3.9,99,0.00,,,0.28,TxWx,2013-02-27 18:32:00,
2013-02-27 12:37:00,34.7,35.0,29.70,SSE,150,6.0,6.3,99,0.00,,,0.28,TxWx,2013-02-27 18:37:00,
2013-02-27 12:43:00,34.7,35.0,29.70,SSE,150,6.9,7.5,99,0.00,,,0.28,TxWx,2013-02-27 18:43:00,
2013-02-27 12:48:00,34.8,35.0,29.70,SSE,147,3.6,4.5,99,0.00,,,0.28,TxWx,2013-02-27 18:48:00,
2013-02-27 12:54:00,34.8,34.0,29.70,SSE,155,3.3,3.3,98,0.00,,,0.28,TxWx,2013-02-27 18:54:00,
2013-02-27 12:59:00,34.8,34.0,29.70,SE,144,3.6,4.2,98,0.00,,,0.29,TxWx,2013-02-27 18:59:00,
2013-02-27 13:04:00,34.7,34.0,29.70,SSE,147,3.6,3.6,98,0.06,,,0.29,TxWx,2013-02-27 19:04:00,
2013-02-27 13:09:00,34.6,34.0,29.70,SE,142,1.8,2.1,98,0.06,,,0.29,TxWx,2013-02-27 19:09:00,
2013-02-27 13:14:00,34.5,34.0,29.70,SE,140,5.1,5.4,98,0.00,,,0.29,TxWx,2013-02-27 19:14:00,
2013-02-27 13:20:00,34.3,33.0,29.70,SSE,159,4.5,4.8,98,0.00,,,0.29,TxWx,2013-02-27 19:20:00,
2013-02-27 13:25:00,34.3,33.0,29.70,SSE,164,3.6,3.6,98,0.00,,,0.30,TxWx,2013-02-27 19:25:00,
2013-02-27 13:30:00,34.2,33.0,29.70,SSE,151,5.1,5.4,98,0.00,,,0.30,TxWx,2013-02-27 19:30:00,
2013-02-27 13:35:00,34.2,33.0,29.71,SSE,152,7.5,8.7,98,0.06,,,0.30,TxWx,2013-02-27 19:35:00,
2013-02-27 13:40:00,34.3,33.0,29.71,SSE,157,3.9,4.2,98,0.00,,,0.30,TxWx,2013-02-27 19:40:00,
2013-02-27 13:45:00,34.2,33.0,29.71,SSE,156,3.0,3.6,98,0.00,,,0.31,TxWx,2013-02-27 19:45:00,
2013-02-27 13:50:00,34.2,33.0,29.71,SE,146,3.3,3.3,98,0.06,,,0.31,TxWx,2013-02-27 19:50:00,
2013-02-27 13:56:00,34.1,33.0,29.71,SSE,157,4.5,4.5,98,0.06,,,0.31,TxWx,2013-02-27 19:56:00,
2013-02-27 14:01:00,34.2,33.0,29.71,SSE,150,2.4,3.0,98,0.00,,,0.31,TxWx,2013-02-27 20:01:00,
2013-02-27 14:06:00,34.3,33.0,29.71,South,172,1.8,2.1,98,0.00,,,0.31,TxWx,2013-02-27 20:06:00,
2013-02-27 14:11:00,34.3,33.0,29.72,SSE,163,1.2,1.5,98,0.00,,,0.31,TxWx,2013-02-27 20:11:00,
2013-02-27 14:17:00,34.2,33.0,29.71,SSE,152,4.5,4.5,98,0.00,,,0.32,TxWx,2013-02-27 20:17:00,
2013-02-27 14:22:00,34.2,33.0,29.72,SE,139,3.0,3.0,98,0.06,,,0.32,TxWx,2013-02-27 20:22:00,
2013-02-27 14:27:00,34.1,33.0,29.72,SE,134,3.0,3.0,98,0.06,,,0.32,TxWx,2013-02-27 20:27:00,
2013-02-27 14:33:00,34.0,33.0,29.72,SSE,147,1.8,1.8,98,0.00,,,0.32,TxWx,2013-02-27 20:33:00,
2013-02-27 14:39:00,34.0,33.0,29.72,SE,132,1.8,1.8,98,0.00,,,0.33,TxWx,2013-02-27 20:39:00,
2013-02-27 14:44:00,34.0,33.0,29.72,SSE,150,3.0,3.0,98,0.06,,,0.33,TxWx,2013-02-27 20:44:00,
2013-02-27 14:50:00,33.9,33.0,29.72,SE,140,4.8,4.8,98,0.06,,,0.33,TxWx,2013-02-27 20:50:00,
2013-02-27 14:55:00,33.8,33.0,29.72,SSE,161,2.4,3.3,98,0.00,,,0.34,TxWx,2013-02-27 20:55:00,
2013-02-27 15:00:00,33.8,33.0,29.72,SSE,156,1.8,2.1,98,0.06,,,0.34,TxWx,2013-02-27 21:00:00,
2013-02-27 15:06:00,33.7,33.0,29.73,SSE,152,2.7,2.7,98,0.06,,,0.34,TxWx,2013-02-27 21:06:00,
2013-02-27 15:11:00,33.6,33.0,29.73,SE,137,2.7,3.3,98,0.00,,,0.34,TxWx,2013-02-27 21:11:00,
2013-02-27 15:16:00,33.6,33.0,29.73,SE,138,6.6,6.6,98,0.00,,,0.35,TxWx,2013-02-27 21:16:00,
2013-02-27 15:21:00,33.5,33.0,29.73,SE,139,2.7,2.7,98,0.06,,,0.35,TxWx,2013-02-27 21:21:00,
2013-02-27 15:26:00,33.5,33.0,29.73,SSE,161,3.6,3.6,98,0.06,,,0.35,TxWx,2013-02-27 21:26:00,
2013-02-27 15:31:00,33.5,32.0,29.73,South,182,3.0,3.0,98,0.00,,,0.35,TxWx,2013-02-27 21:31:00,
2013-02-27 15:36:00,33.5,32.0,29.73,SSE,149,3.9,4.2,98,0.00,,,0.36,TxWx,2013-02-27 21:36:00,
2013-02-27 15:41:00,33.5,33.0,29.73,South,170,0.9,0.9,98,0.06,,,0.36,TxWx,2013-02-27 21:41:00,
2013-02-27 15:46:00,33.4,32.0,29.73,SSE,157,2.7,2.7,98,0.06,,,0.36,TxWx,2013-02-27 21:46:00,
2013-02-27 15:52:00,33.5,32.0,29.74,SSE,154,2.7,3.0,98,0.00,,,0.37,TxWx,2013-02-27 21:52:00,
2013-02-27 15:57:00,33.5,32.0,29.74,SE,140,3.6,3.6,98,0.00,,,0.37,TxWx,2013-02-27 21:57:00,
2013-02-27 16:02:00,33.4,32.0,29.74,SSE,164,4.2,4.2,98,0.06,,,0.37,TxWx,2013-02-27 22:02:00,
2013-02-27 16:07:00,33.5,32.0,29.74,SE,129,3.9,4.2,98,0.06,,,0.37,TxWx,2013-02-27 22:07:00,
2013-02-27 16:12:00,33.4,32.0,29.74,SSE,162,3.9,3.9,98,0.06,,,0.38,TxWx,2013-02-27 22:12:00,
2013-02-27 16:18:00,33.4,32.0,29.74,SSE,150,1.5,1.5,98,0.06,,,0.38,TxWx,2013-02-27 22:18:00,
2013-02-27 16:23:00,33.4,32.0,29.74,SE,129,3.6,3.6,98,0.00,,,0.38,TxWx,2013-02-27 22:23:00,
2013-02-27 16:28:00,33.3,32.0,29.74,SE,137,1.8,2.1,98,0.00,,,0.39,TxWx,2013-02-27 22:28:00,
2013-02-27 16:33:00,33.3,32.0,29.74,SSE,161,3.0,3.0,98,0.06,,,0.39,TxWx,2013-02-27 22:33:00,
2013-02-27 16:39:00,33.3,32.0,29.75,SE,146,3.3,3.3,98,0.06,,,0.39,TxWx,2013-02-27 22:39:00,
2013-02-27 16:44:00,33.2,32.0,29.75,SE,143,4.8,4.8,98,0.00,,,0.39,TxWx,2013-02-27 22:44:00,
2013-02-27 16:49:00,33.2,32.0,29.75,SSE,154,4.8,4.8,98,0.00,,,0.39,TxWx,2013-02-27 22:49:00,
2013-02-27 16:54:00,33.3,32.0,29.75,South,184,1.5,1.8,98,0.00,,,0.39,TxWx,2013-02-27 22:54:00,
2013-02-27 16:59:00,33.2,32.0,29.75,SSE,152,3.9,3.9,98,0.00,,,0.39,TxWx,2013-02-27 22:59:00,
2013-02-27 17:05:00,33.3,32.0,29.75,SSE,153,2.7,3.3,98,0.00,,,0.40,TxWx,2013-02-27 23:05:00,
2013-02-27 17:10:00,33.3,32.0,29.75,SE,133,3.9,4.8,98,0.00,,,0.40,TxWx,2013-02-27 23:10:00,
2013-02-27 17:15:00,33.3,32.0,29.76,SSE,155,6.0,6.0,98,0.06,,,0.40,TxWx,2013-02-27 23:15:00,
2013-02-27 17:20:00,33.3,32.0,29.75,SSE,158,3.9,4.8,98,0.00,,,0.40,TxWx,2013-02-27 23:20:00,
2013-02-27 17:25:00,33.4,32.0,29.75,SSE,162,2.7,2.7,98,0.00,,,0.40,TxWx,2013-02-27 23:25:00,
2013-02-27 17:30:00,33.4,32.0,29.76,SE,132,2.7,3.0,98,0.00,,,0.40,TxWx,2013-02-27 23:30:00,
2013-02-27 17:35:00,33.4,32.0,29.76,SE,146,6.9,6.9,98,0.00,,,0.40,TxWx,2013-02-27 23:35:00,
2013-02-27 17:41:00,33.4,32.0,29.76,SE,135,3.6,3.9,98,0.00,,,0.40,TxWx,2013-02-27 23:41:00,
2013-02-27 17:46:00,33.4,32.0,29.76,SE,137,3.3,3.3,98,0.00,,,0.40,TxWx,2013-02-27 23:46:00,
2013-02-27 17:51:00,33.3,32.0,29.76,SSE,159,6.3,6.9,98,0.00,,,0.40,TxWx,2013-02-27 23:51:00,
2013-02-27 17:56:00,33.3,32.0,29.76,SE,136,5.1,5.1,98,0.00,,,0.40,TxWx,2013-02-27 23:56:00,
2013-02-27 18:01:00,33.3,32.0,29.76,SSE,154,7.2,7.8,98,0.00,,,0.40,TxWx,2013-02-28 00:01:00,
2013-02-27 18:06:00,33.3,32.0,29.76,SSE,150,5.4,6.0,98,0.00,,,0.40,TxWx,2013-02-28 00:06:00,
2013-02-27 18:11:00,33.3,32.0,29.77,SSE,158,4.5,4.5,98,0.00,,,0.40,TxWx,2013-02-28 00:11:00,
2013-02-27 18:16:00,33.3,32.0,29.77,SSE,149,2.4,3.3,98,0.00,,,0.40,TxWx,2013-02-28 00:16:00,
2013-02-27 18:22:00,33.4,32.0,29.77,SSE,159,5.7,5.7,98,0.00,,,0.40,TxWx,2013-02-28 00:22:00,
2013-02-27 18:27:00,33.3,32.0,29.77,SE,139,5.4,5.4,98,0.00,,,0.40,TxWx,2013-02-28 00:27:00,
2013-02-27 18:32:00,33.3,32.0,29.77,SSE,154,6.6,6.6,98,0.00,,,0.40,TxWx,2013-02-28 00:32:00,
2013-02-27 18:37:00,33.3,32.0,29.77,SSE,155,6.9,6.9,98,0.00,,,0.40,TxWx,2013-02-28 00:37:00,
2013-02-27 18:42:00,33.3,32.0,29.77,SSE,155,5.7,7.2,98,0.06,,,0.41,TxWx,2013-02-28 00:42:00,
2013-02-27 18:48:00,33.3,32.0,29.77,SE,146,4.5,5.1,98,0.06,,,0.41,TxWx,2013-02-28 00:48:00,
2013-02-27 18:53:00,33.3,32.0,29.77,SSE,163,5.1,5.7,98,0.00,,,0.41,TxWx,2013-02-28 00:53:00,
2013-02-27 18:58:00,33.2,32.0,29.77,SSE,160,9.0,9.3,98,0.00,,,0.41,TxWx,2013-02-28 00:58:00,
2013-02-27 19:03:00,33.2,32.0,29.77,SSE,156,3.6,4.2,98,0.00,,,0.41,TxWx,2013-02-28 01:03:00,
2013-02-27 19:08:00,33.2,32.0,29.77,SSE,157,4.5,4.8,98,0.00,,,0.41,TxWx,2013-02-28 01:08:00,
2013-02-27 19:13:00,33.2,32.0,29.77,SSE,156,6.3,7.2,98,0.00,,,0.41,TxWx,2013-02-28 01:13:00,
2013-02-27 19:19:00,33.2,32.0,29.77,SSE,153,4.5,4.8,98,0.00,,,0.41,TxWx,2013-02-28 01:19:00,
2013-02-27 19:24:00,33.2,32.0,29.78,South,169,6.9,7.2,98,0.00,,,0.41,TxWx,2013-02-28 01:24:00,
2013-02-27 19:29:00,33.2,32.0,29.78,South,169,3.6,4.5,98,0.00,,,0.41,TxWx,2013-02-28 01:29:00,
2013-02-27 19:34:00,33.2,32.0,29.78,SSE,168,6.6,7.2,98,0.00,,,0.41,TxWx,2013-02-28 01:34:00,
2013-02-27 19:39:00,33.2,32.0,29.78,South,174,3.9,4.5,98,0.00,,,0.41,TxWx,2013-02-28 01:39:00,
2013-02-27 19:44:00,33.2,32.0,29.78,SSE,153,7.2,7.2,98,0.00,,,0.41,TxWx,2013-02-28 01:44:00,
2013-02-27 19:50:00,33.3,32.0,29.78,SSE,168,7.5,8.1,98,0.00,,,0.41,TxWx,2013-02-28 01:50:00,
2013-02-27 19:55:00,33.4,33.0,29.78,SSE,165,10.2,10.2,99,0.00,,,0.41,TxWx,2013-02-28 01:55:00,
2013-02-27 20:00:00,33.4,33.0,29.78,South,178,10.8,12.0,99,0.00,,,0.41,TxWx,2013-02-28 02:00:00,
2013-02-27 20:05:00,33.4,33.0,29.78,South,172,6.6,6.6,99,0.00,,,0.41,TxWx,2013-02-28 02:05:00,
2013-02-27 20:10:00,33.4,33.0,29.78,South,172,7.2,7.2,99,0.06,,,0.42,TxWx,2013-02-28 02:10:00,
2013-02-27 20:15:00,33.3,33.0,29.78,South,178,10.8,11.1,99,0.06,,,0.42,TxWx,2013-02-28 02:15:00,
2013-02-27 20:20:00,33.3,33.0,29.78,South,184,7.5,7.5,99,0.00,,,0.42,TxWx,2013-02-28 02:20:00,
2013-02-27 20:26:00,33.4,33.0,29.78,South,174,10.8,11.4,99,0.00,,,0.42,TxWx,2013-02-28 02:26:00,
2013-02-27 20:31:00,33.4,33.0,29.78,SSE,168,14.1,14.1,99,0.00,,,0.42,TxWx,2013-02-28 02:31:00,
2013-02-27 20:36:00,33.3,33.0,29.78,South,173,10.5,11.7,99,0.00,,,0.42,TxWx,2013-02-28 02:36:00,
2013-02-27 20:41:00,33.3,33.0,29.78,South,170,6.9,9.3,99,0.00,,,0.42,TxWx,2013-02-28 02:41:00,
2013-02-27 20:47:00,33.4,33.0,29.78,South,175,11.1,11.1,99,0.00,,,0.42,TxWx,2013-02-28 02:47:00,
2013-02-27 20:52:00,33.4,33.0,29.78,South,171,6.9,7.2,99,0.00,,,0.42,TxWx,2013-02-28 02:52:00,
2013-02-27 20:57:00,33.3,33.0,29.78,SSE,167,11.1,12.3,99,0.00,,,0.42,TxWx,2013-02-28 02:57:00,
2013-02-27 21:02:00,33.3,33.0,29.78,South,176,13.5,15.0,100,0.06,,,0.43,TxWx,2013-02-28 03:02:00,
2013-02-27 21:07:00,33.3,33.0,29.79,SSE,166,5.4,5.4,100,0.06,,,0.43,TxWx,2013-02-28 03:07:00,
2013-02-27 21:12:00,33.4,33.0,29.79,South,177,12.6,12.6,100,0.00,,,0.43,TxWx,2013-02-28 03:12:00,
2013-02-27 21:18:00,33.4,33.0,29.78,South,171,9.6,9.6,100,0.00,,,0.43,TxWx,2013-02-28 03:18:00,
2013-02-27 21:23:00,33.3,33.0,29.79,South,176,9.9,10.5,100,0.00,,,0.43,TxWx,2013-02-28 03:23:00,
2013-02-27 21:28:00,33.3,33.0,29.79,SSE,166,15.6,15.6,100,0.00,,,0.43,TxWx,2013-02-28 03:28:00,
2013-02-27 21:33:00,33.3,33.0,29.79,SSE,167,13.2,13.5,100,0.00,,,0.43,TxWx,2013-02-28 03:33:00,
2013-02-27 21:38:00,33.3,33.0,29.79,South,178,13.5,13.8,100,0.00,,,0.44,TxWx,2013-02-28 03:38:00,
2013-02-27 21:44:00,33.3,33.0,29.80,South,173,13.8,15.0,100,0.06,,,0.44,TxWx,2013-02-28 03:44:00,
2013-02-27 21:49:00,33.3,33.0,29.80,South,170,13.5,13.5,100,0.06,,,0.44,TxWx,2013-02-28 03:49:00,
2013-02-27 21:54:00,33.3,33.0,29.79,SSE,168,9.9,12.3,100,0.00,,,0.44,TxWx,2013-02-28 03:54:00,
2013-02-27 21:59:00,33.3,33.0,29.80,SSE,166,9.9,10.8,100,0.00,,,0.44,TxWx,2013-02-28 03:59:00,
2013-02-27 22:04:00,33.3,33.0,29.80,South,175,13.8,13.8,100,0.00,,,0.44,TxWx,2013-02-28 04:04:00,
2013-02-27 22:09:00,33.3,33.0,29.80,South,173,10.2,10.2,100,0.00,,,0.44,TxWx,2013-02-28 04:09:00,
2013-02-27 22:14:00,33.2,33.0,29.80,South,171,17.4,18.3,100,0.00,,,0.45,TxWx,2013-02-28 04:14:00,
2013-02-27 22:19:00,33.2,33.0,29.79,South,177,12.6,17.7,100,0.00,,,0.45,TxWx,2013-02-28 04:19:00,
2013-02-27 22:25:00,33.1,33.0,29.80,South,172,14.4,14.4,100,0.06,,,0.45,TxWx,2013-02-28 04:25:00,
2013-02-27 22:30:00,33.1,33.0,29.80,South,171,18.0,18.9,100,0.06,,,0.45,TxWx,2013-02-28 04:30:00,
2013-02-27 22:35:00,33.0,33.0,29.80,South,173,17.4,18.0,100,0.00,,,0.45,TxWx,2013-02-28 04:35:00,
2013-02-27 22:40:00,33.0,33.0,29.80,South,176,16.2,16.2,100,0.00,,,0.45,TxWx,2013-02-28 04:40:00,
2013-02-27 22:45:00,32.9,33.0,29.80,South,174,12.6,12.6,100,0.00,,,0.45,TxWx,2013-02-28 04:45:00,
2013-02-27 22:50:00,32.9,33.0,29.80,South,175,14.7,15.9,100,0.00,,,0.45,TxWx,2013-02-28 04:50:00,
2013-02-27 22:55:00,32.9,33.0,29.80,South,171,15.3,17.1,100,0.00,,,0.45,TxWx,2013-02-28 04:55:00,
2013-02-27 23:00:00,32.8,33.0,29.80,South,174,10.5,13.5,100,0.00,,,0.45,TxWx,2013-02-28 05:00:00,
2013-02-27 23:02:00,32.9,33.0,29.80,SSE,164,20.7,21.9,100,0.00,,,0.45,TxWx,2013-02-28 05:02:00,
2013-02-27 23:07:00,32.9,33.0,29.80,SSE,168,17.7,17.7,100,0.00,,,0.45,TxWx,2013-02-28 05:07:00,
2013-02-27 23:12:00,32.8,33.0,29.80,SSE,163,14.4,15.6,100,0.00,,,0.45,TxWx,2013-02-28 05:12:00,
2013-02-27 23:17:00,32.8,33.0,29.80,South,173,14.7,15.3,100,0.00,,,0.45,TxWx,2013-02-28 05:17:00,
2013-02-27 23:22:00,32.8,33.0,29.80,South,175,17.1,17.1,100,0.00,,,0.45,TxWx,2013-02-28 05:22:00,
2013-02-27 23:27:00,32.8,33.0,29.80,South,172,13.5,18.0,100,0.00,,,0.45,TxWx,2013-02-28 05:27:00,
2013-02-27 23:33:00,32.7,33.0,29.80,South,171,17.7,21.6,100,0.00,,,0.45,TxWx,2013-02-28 05:33:00,
2013-02-27 23:38:00,32.8,33.0,29.80,SSE,167,18.0,18.6,100,0.00,,,0.45,TxWx,2013-02-28 05:38:00,
2013-02-27 23:43:00,32.8,33.0,29.80,South,170,11.4,11.4,100,0.00,,,0.45,TxWx,2013-02-28 05:43:00,
2013-02-27 23:48:00,32.8,33.0,29.80,South,173,21.9,21.9,100,0.00,,,0.45,TxWx,2013-02-28 05:48:00,
2013-02-27 23:53:00,32.8,33.0,29.80,South,177,15.3,21.0,100,0.00,,,0.45,TxWx,2013-02-28 05:53:00,
2013-02-27 23:59:00,32.8,33.0,29.80,South,170,18.9,20.4,100,0.00,,,0.45,TxWx,2013-02-28 05:59:00,